LGTS/SKG METAR and TAF weather

Enter ICAO airport designator
Station Type Date Time Source
LGTS METAR 2021/05/14 14:20 UTC NOAA

LGTS 141420Z 20006KT 9999 FEW025 27/05 Q1011 NOSIG


Station Type Date Time Source
LGTS Decoded METAR 2021/05/14 14:20 UTC NOAA

Thessaloniki Airport , Greece (LGTS) 40-31N 022-58E 4M
May 14, 2021 - 10:20 AM EDT / 2021.05.14 1420 UTC
Wind: from the SSW (200 degrees) at 7 MPH (6 KT):0
Visibility: greater than 7 mile(s):0
Sky conditions: mostly clear
Temperature: 80 F (27 C)
Dew Point: 41 F (5 C)
Relative Humidity: 24%
Pressure (altimeter): 29.85 in. Hg (1011 hPa)
ob: LGTS 141420Z 20006KT 9999 FEW025 27/05 Q1011 NOSIG
cycle: 14

Station Type Date Time Source
LGTS TAF 2021/05/14 12:13 UTC NOAA

TAF LGTS 141100Z 1412/1512 14013KT 9999 FEW030
BECMG 1418/1420 VRB03KT
BECMG 1504/1506 SCT030
TEMPO 1507/1512 3000 TSRA FEW015CB BKN030

Example: see airport list